Enter the Airport ICAO Code

Search by Airport or City

Current Weather

SPQT | Coronel FAP Francisco Secada Vignetta International Airport

Iquitos, Peru

Last Update 10 Minutes Ago

Sky with Few Clouds

Temperature of 22 ēC

Calm Wind

Temperature

22 ēC

Dew Point Temperature

21 ēC

Relative Humidity

94.1 %

Wind Direction

None

Wind Velocity

0 km/h (0 kt)

Gusts

None

Visibility

Reduced to 7.0 Kilometers

Sea Level Pressure

1010 hPa (Hectopascals)

Layers of Clouds

5% to 30% of Sky Covered from 183 mts (600 ft) Above Ground Level.

METAR SPQT 160800Z 00000KT 7000 FEW006 22/21 Q1010 NOSIG RMK PP000

Weather Forecast

SPQT | Coronel FAP Francisco Secada Vignetta International Airport

Iquitos, Peru

Forecast valid for the next 22 Hours

From now on it is expected:

Sky with Few Clouds

Light Winds from NorthEast

From now on it is expected 4 hours with intermittent periods of:

Drizzle, Mist

In 5 to 8 hours it is expected the begining of:

Mostly Cloudy Sky

In 10 hours it is expected the begining of 4 hours with intermittent periods of:

Thunderstorm with Rain

Moderate Winds from SouthEast

In 14 to 17 hours it is expected the begining of:

Sky with Few Clouds

Maximum Temperature

30 ēC in 11 Hours

Minimum Temperature

22 ēC in 3 Hours

TAF SPQT 160500Z 1606/1706 05004KT 9999 FEW010 TX30/1619Z TN22/1611Z TEMPO 1608/1612 2000 RADZ BR BKN005 BKN070 BECMG 1613/1616 BKN015 BKN80 TEMPO 1618/1622 13014KT 3000 TSRA BKN010 FEW020CB OVC060 BECMG 1622/1701 FEW015